Flight Track Log - Related Links

Times and Time Zones

All times are in EDT time to prevent confusion due to time zone crossing. See the UAL252 flight status page for this flight to view local times or setup timezone preferences in your user account.

Time Position Orientation Groundspeed Altitude Reporting Facility
EDT Latitude Longitude Course Direction KTS MPH feet Rate Location/Type
Sun 07:04:10 PM 33.6394 -117.8869 90° East 141 162 2,000  Level Los Angeles Center
Sun 07:05:13 PM 33.5997 -117.8939 188° South 142 163 3,400 1,200 Climbing Los Angeles Center
Sun 07:06:00 PM 33.4776 -117.6652 54° Northeast  Level FlightAware Approximate
Sun 07:06:15 PM 33.5411 -117.8786 168° South 230 265 4,500  Level Los Angeles Center
Sun 07:07:00 PM 33.5364 -117.5474 66° East  Level FlightAware Approximate
Sun 07:07:17 PM 33.4917 -117.8147 133° Southeast 277 319 8,000  Level Los Angeles Center
Sun 07:08:00 PM 33.5820 -117.4207 68° East  Level FlightAware Approximate
Sun 07:08:19 PM 33.4817 -117.7056 96° East 293 337 11,200  Level Los Angeles Center
Sun 07:09:00 PM 33.5833 -117.2830 90° East  Level FlightAware Approximate
Sun 07:09:21 PM 33.5256 -117.6047 62° Northeast 336 387 13,000  Level Los Angeles Center
Sun 07:10:23 PM 33.5742 -117.4994 61° Northeast 359 413 15,600 2,323 Climbing Los Angeles Center
Sun 07:11:25 PM 33.5825 -117.3717 85° East 392 451 17,800 1,742 Climbing Los Angeles Center
Sun 07:12:27 PM 33.5894 -117.2386 86° East 400 460 19,200 1,403 Climbing Los Angeles Center
Sun 07:13:29 PM 33.5953 -117.0739 88° East 412 474 20,700 1,403 Climbing Los Angeles Center
Sun 07:14:31 PM 33.6008 -116.9339 87° East 421 484 22,100 1,161 Climbing Los Angeles Center
Sun 07:15:33 PM 33.6064 -116.7819 87° East 428 493 23,100 912 Climbing Los Angeles Center
Sun 07:16:36 PM 33.6117 -116.6369 87° East 432 497 24,000 384 Climbing Los Angeles Center
Sun 07:17:38 PM 33.6319 -116.4944 80° East 438 504 23,900  Descending Los Angeles Center
Sun 07:18:40 PM 33.6758 -116.3572 69° East 439 505 24,000 145 Climbing Los Angeles Center
Sun 07:19:42 PM 33.7172 -116.2208 70° East 433 498 24,200 581 Climbing Los Angeles Center
Sun 07:20:44 PM 33.7603 -116.0856 69° East 433 498 25,200 1,210 Climbing Los Angeles Center
Sun 07:21:46 PM 33.8039 -115.9467 69° East 441 507 26,700 1,403 Climbing Los Angeles Center
Sun 07:22:48 PM 33.8600 -115.7772 68° East 452 520 28,100 1,306 Climbing Los Angeles Center
Sun 07:23:50 PM 33.9228 -115.6433 61° Northeast 462 532 29,400 1,355 Climbing Los Angeles Center
Sun 07:24:52 PM 34.0072 -115.5283 48° Northeast 459 528 30,900 1,258 Climbing Los Angeles Center
Sun 07:25:54 PM 34.0908 -115.4133 49° Northeast 456 525 32,000 1,210 Climbing Los Angeles Center
Sun 07:26:56 PM 34.1733 -115.3017 48° Northeast 449 517 33,400 1,452 Climbing Los Angeles Center
Sun 07:27:58 PM 34.2542 -115.1892 49° Northeast 444 511 35,000 1,258 Climbing Los Angeles Center
Sun 07:29:00 PM 34.3506 -115.0561 49° Northeast 439 505 36,000 912 Climbing Los Angeles Center
Sun 07:30:03 PM 34.4317 -114.9428 49° Northeast 444 511 36,900 480 Climbing Los Angeles Center
Sun 07:31:05 PM 34.5131 -114.8294 49° Northeast 446 513 37,000 48 Climbing Los Angeles Center
Sun 07:32:07 PM 34.5950 -114.7158 49° Northeast 446 513 37,000  Level Los Angeles Center
Sun 07:33:09 PM 34.6842 -114.5903 49° Northeast 448 516 37,000  Level Los Angeles Center
Sun 07:34:11 PM 34.7653 -114.4742 50° Northeast 451 519 37,000  Level Los Angeles Center
Sun 07:35:13 PM 34.8572 -114.3747 42° Northeast 443 510 37,000  Level Los Angeles Center
Sun 07:36:15 PM 34.9506 -114.2731 42° Northeast 449 517 37,000  Level Los Angeles Center
Sun 07:37:17 PM 35.0400 -114.1258 53° Northeast 450 518 37,000  Level Los Angeles Center
Sun 07:38:19 PM 35.1125 -114.0006 55° Northeast 451 519 37,000  Level Los Angeles Center
Sun 07:39:21 PM 35.1869 -113.8703 55° Northeast 453 521 37,000  Level Los Angeles Center
Sun 07:40:23 PM 35.2600 -113.7442 55° Northeast 455 524 37,000  Level Los Angeles Center
Sun 07:41:26 PM 35.3311 -113.6192 55° Northeast 451 519 37,000  Level Los Angeles Center
Sun 07:42:28 PM 35.4017 -113.4942 55° Northeast 448 516 37,000  Level Los Angeles Center
Sun 07:43:30 PM 35.4722 -113.3686 55° Northeast 448 516 37,000  Level Los Angeles Center
Sun 07:44:32 PM 35.5531 -113.2222 56° Northeast 445 512 37,000  Level Los Angeles Center
Sun 07:45:34 PM 35.6239 -113.0969 55° Northeast 445 512 37,000  Level Los Angeles Center
Sun 07:46:36 PM 35.6983 -112.9633 56° Northeast 447 514 37,000  Level Los Angeles Center
Sun 07:47:38 PM 35.7678 -112.8369 56° Northeast 446 513 37,000  Level Los Angeles Center
Sun 07:48:40 PM 35.8372 -112.7106 56° Northeast 445 512 37,000  Level Los Angeles Center
Sun 07:49:42 PM 35.9072 -112.5839 56° Northeast 447 514 37,000  Level Los Angeles Center
Sun 07:50:44 PM 35.9869 -112.4361 56° Northeast 444 511 37,000  Level Los Angeles Center
Sun 07:51:46 PM 36.0550 -112.3117 56° Northeast 440 506 37,000  Level Los Angeles Center
Sun 07:52:48 PM 36.1256 -112.1814 56° Northeast 444 511 37,000  Level Los Angeles Center
Sun 07:53:50 PM 36.1933 -112.0572 56° Northeast 440 506 37,000  Level Los Angeles Center
Sun 07:54:53 PM 36.2594 -111.9364 56° Northeast 439 505 37,000  Level Los Angeles Center
Sun 07:55:21 PM 36.2986 -111.8617 57° Northeast 439 505 37,000  Level Denver Center
Sun 07:56:23 PM 36.3664 -111.7364 56° Northeast 439 505 37,000 48 Level Denver Center
Sun 07:57:25 PM 36.4350 -111.6081 56° Northeast 444 511 37,100  Climbing Denver Center
Sun 07:58:27 PM 36.5028 -111.4797 57° Northeast 447 514 37,000 -48 Descending Denver Center
Sun 07:59:29 PM 36.5836 -111.3275 56° Northeast 444 511 37,000  Level Denver Center
Sun 08:00:31 PM 36.6511 -111.1989 57° Northeast 444 511 37,000  Level Denver Center
Sun 08:01:33 PM 36.7194 -111.0708 56° Northeast 445 512 37,000  Level Denver Center
Sun 08:02:35 PM 36.7858 -110.9433 57° Northeast 443 510 37,000  Level Denver Center
Sun 08:03:36 PM 36.8525 -110.8156 57° Northeast 441 507 37,000  Level Denver Center
Sun 08:04:38 PM 36.9200 -110.6869 57° Northeast 444 511 37,000  Level Denver Center
Sun 08:05:40 PM 36.9864 -110.5567 57° Northeast 445 512 37,000  Level Denver Center
Sun 08:06:42 PM 37.0686 -110.4000 57° Northeast 448 516 37,000  Level Denver Center
Sun 08:07:44 PM 37.1353 -110.2697 57° Northeast 449 517 37,000  Level Denver Center
Sun 08:08:46 PM 37.2006 -110.1411 57° Northeast 448 516 37,000  Level Denver Center
Sun 08:09:47 PM 37.2756 -109.9936 57° Northeast 448 516 37,000  Level Denver Center
Sun 08:10:49 PM 37.3403 -109.8656 58° Northeast 451 519 37,000  Level Denver Center
Sun 08:11:51 PM 37.4156 -109.7178 57° Northeast 450 518 37,000  Level Denver Center
Sun 08:12:53 PM 37.4800 -109.5894 58° Northeast 452 520 37,000  Level Denver Center
Sun 08:13:55 PM 37.5431 -109.4619 58° Northeast 448 516 37,000  Level Denver Center
Sun 08:14:57 PM 37.6183 -109.3119 58° Northeast 451 519 37,000  Level Denver Center
Sun 08:15:58 PM 37.6836 -109.1825 57° Northeast 455 524 37,000  Level Denver Center
Sun 08:17:00 PM 37.7583 -109.0308 58° Northeast 454 522 37,000  Level Denver Center
Sun 08:18:02 PM 37.8225 -108.8997 58° Northeast 457 526 37,000  Level Denver Center
Sun 08:19:04 PM 37.8972 -108.7486 58° Northeast 454 522 37,000  Level Denver Center
Sun 08:20:06 PM 37.9614 -108.6178 58° Northeast 456 525 37,000  Level Denver Center
Sun 08:21:08 PM 38.0256 -108.4869 58° Northeast 456 525 37,000  Level Denver Center
Sun 08:22:10 PM 38.0967 -108.3386 59° Northeast 457 526 37,000  Level Denver Center
Sun 08:23:11 PM 38.1714 -108.1825 59° Northeast 460 529 37,000  Level Denver Center
Sun 08:24:13 PM 38.2333 -108.0522 59° Northeast 454 522 37,000  Level Denver Center
Sun 08:25:15 PM 38.3075 -107.9000 58° Northeast 453 521 37,000  Level Denver Center
Sun 08:26:17 PM 38.3697 -107.7689 59° Northeast 454 522 37,000 -339 Level Denver Center
Sun 08:27:19 PM 38.4333 -107.6350 59° Northeast 458 527 36,300 -732 Descending Denver Center
Sun 08:28:20 PM 38.5039 -107.4794 60° Northeast 457 526 35,500 -878 Descending Denver Center
Sun 08:29:22 PM 38.5658 -107.3417 60° Northeast 464 534 34,500 -1,016 Descending Denver Center
Sun 08:30:24 PM 38.6381 -107.1797 60° Northeast 468 539 33,400 -726 Descending Denver Center
Sun 08:31:26 PM 38.7033 -107.0336 60° Northeast 472 543 33,000 -195 Descending Denver Center
Sun 08:32:27 PM 38.7678 -106.8858 61° Northeast 477 549 33,000  Level Denver Center
Sun 08:33:29 PM 38.8339 -106.7378 60° Northeast 481 554 33,000 -97 Level Denver Center
Sun 08:34:31 PM 38.9089 -106.5703 60° Northeast 474 545 32,800 -871 Descending Denver Center
Sun 08:35:33 PM 38.9744 -106.4292 59° Northeast 479 551 31,200 -1,452 Descending Denver Center
Sun 08:36:35 PM 39.0389 -106.2867 60° Northeast 482 555 29,800 -1,902 Descending Denver Center
Sun 08:37:36 PM 39.1061 -106.1356 60° Northeast 473 544 27,300 -2,390 Descending Denver Center
Sun 08:38:38 PM 39.1694 -105.9925 60° Northeast 460 529 24,900 -2,419 Descending Denver Center
Sun 08:39:40 PM 39.2394 -105.8322 61° Northeast 436 502 22,300 -2,341 Descending Denver Center
Sun 08:40:41 PM 39.2989 -105.7014 60° Northeast 423 487 20,100 -1,805 Descending Denver Center
Sun 08:41:43 PM 39.3522 -105.5781 61° Northeast 396 456 18,600 -1,113 Descending Denver Center
Sun 08:42:45 PM 39.3981 -105.4669 62° Northeast 357 411 17,800 -1,073 Descending Denver Center
Sun 08:43:46 PM 39.4017 -105.3483 88° East 329 379 16,400 -1,366 Descending Denver Center
Sun 08:44:48 PM 39.4078 -105.2217 86° East 331 381 15,000 -1,268 Descending Denver Center
Sun 08:45:49 PM 39.4119 -105.1053 87° East 325 374 13,800 -829 Descending Denver Center
Sun 08:46:51 PM 39.4269 -104.9878 81° East 310 357 13,300 -581 Descending Denver Center
Sun 08:47:53 PM 39.4511 -104.8956 71° East 268 308 12,600 -585 Descending Denver Center
Sun 08:48:54 PM 39.4928 -104.8197 55° Northeast 256 295 12,100 -585 Descending Denver Center
Sun 08:49:56 PM 39.5497 -104.7564 41° Northeast 256 295 11,400 -1,113 Descending Denver Center
Sun 08:50:58 PM 39.6081 -104.7100 31° Northeast 248 285 9,800 -1,548 Descending Denver Center

Login

Don't have an account? Register now (free) for customized features, flight alerts, and more!